createdAt,value
2022-08-04T00:00:32.957Z,23.50
2022-08-04T00:03:13.784Z,23.50
2022-08-04T00:05:56.456Z,23.50
2022-08-04T00:08:36.071Z,23.60
2022-08-04T00:11:05.258Z,23.50
2022-08-04T00:13:39.539Z,23.50
2022-08-04T00:16:34.845Z,23.50
2022-08-04T00:19:12.245Z,23.50
2022-08-04T00:21:48.855Z,23.40
2022-08-04T00:24:17.991Z,23.30
2022-08-04T00:26:46.887Z,23.40
2022-08-04T00:29:15.116Z,23.40
2022-08-04T00:31:56.748Z,23.30
2022-08-04T00:34:27.728Z,23.30
2022-08-04T00:36:59.367Z,23.30
2022-08-04T00:39:28.987Z,23.20
2022-08-04T00:42:37.415Z,23.20
2022-08-04T00:46:15.812Z,23.10
2022-08-04T00:48:58.042Z,23.10
2022-08-04T00:51:39.152Z,23.00
2022-08-04T00:54:19.657Z,23.00
2022-08-04T00:57:34.014Z,23.00
2022-08-04T01:00:10.004Z,23.00
2022-08-04T01:02:51.113Z,23.00
2022-08-04T01:05:26.254Z,22.80
2022-08-04T01:08:30.640Z,22.90
2022-08-04T01:11:14.206Z,22.90
2022-08-04T01:14:07.063Z,22.70
2022-08-04T01:16:45.352Z,22.60
2022-08-04T01:19:37.627Z,22.60
2022-08-04T01:22:24.589Z,22.70
2022-08-04T01:25:26.031Z,22.80
2022-08-04T01:28:22.845Z,22.80
2022-08-04T01:30:59.672Z,22.70
2022-08-04T01:33:31.318Z,22.70
2022-08-04T01:36:25.402Z,22.70
2022-08-04T01:38:55.657Z,22.70
2022-08-04T01:41:32.701Z,22.70
2022-08-04T01:44:03.312Z,22.50
2022-08-04T01:46:36.417Z,22.50
2022-08-04T01:49:04.828Z,22.50
2022-08-04T01:51:36.006Z,22.50
2022-08-04T01:54:04.342Z,22.40
2022-08-04T01:56:32.677Z,22.50
2022-08-04T01:59:04.312Z,22.60
2022-08-04T02:01:37.729Z,22.60
2022-08-04T02:04:18.090Z,22.50
2022-08-04T02:07:04.278Z,22.50
2022-08-04T02:09:55.081Z,22.60
2022-08-04T02:12:33.350Z,22.60
2022-08-04T02:15:10.860Z,22.60
2022-08-04T02:17:53.509Z,22.60
2022-08-04T02:20:26.427Z,22.50
2022-08-04T02:23:03.310Z,22.50
2022-08-04T02:25:39.481Z,22.40
2022-08-04T02:28:19.346Z,22.40
2022-08-04T02:30:59.367Z,22.40
2022-08-04T02:33:38.214Z,22.50
2022-08-04T02:36:13.876Z,22.50
2022-08-04T02:38:57.861Z,22.50
2022-08-04T02:41:29.028Z,22.50
2022-08-04T02:44:01.540Z,22.50
2022-08-04T02:46:31.975Z,22.50
2022-08-04T02:49:05.553Z,22.40
2022-08-04T02:51:36.683Z,22.40
2022-08-04T02:54:07.310Z,22.40
2022-08-04T02:56:40.694Z,22.50
2022-08-04T02:59:11.247Z,22.40
2022-08-04T03:01:56.874Z,22.30
2022-08-04T03:04:55.526Z,22.40
2022-08-04T03:08:33.562Z,22.40
2022-08-04T03:11:36.719Z,22.40
2022-08-04T03:14:30.304Z,22.30
2022-08-04T03:17:38.250Z,22.20
2022-08-04T03:21:11.942Z,22.30
2022-08-04T03:24:45.344Z,22.10
2022-08-04T03:28:03.784Z,22.10
2022-08-04T03:30:45.692Z,22.20
2022-08-04T03:33:35.442Z,22.20
2022-08-04T03:36:57.356Z,22.20
2022-08-04T03:39:51.147Z,22.10
2022-08-04T03:43:07.426Z,22.10
2022-08-04T03:46:46.298Z,22.00
2022-08-04T03:50:04.506Z,21.70
2022-08-04T03:53:14.175Z,21.70
2022-08-04T03:56:16.005Z,21.80
2022-08-04T03:59:25.681Z,21.60
2022-08-04T04:02:26.064Z,21.60
2022-08-04T04:05:25.486Z,21.70
2022-08-04T04:08:46.673Z,21.90
2022-08-04T04:11:54.213Z,21.70
2022-08-04T04:14:50.882Z,21.70
2022-08-04T04:17:47.741Z,21.50
2022-08-04T04:20:59.030Z,21.50
2022-08-04T04:23:56.779Z,21.50
2022-08-04T04:26:41.704Z,21.50
2022-08-04T04:29:49.440Z,21.50
2022-08-04T04:32:45.055Z,21.60
2022-08-04T04:35:27.964Z,21.60
2022-08-04T04:38:27.000Z,21.70
2022-08-04T04:41:07.260Z,21.70
2022-08-04T04:44:30.672Z,21.50
2022-08-04T04:47:08.506Z,21.40
2022-08-04T04:49:47.586Z,21.50
2022-08-04T04:52:25.502Z,21.60
2022-08-04T04:55:01.514Z,21.60
2022-08-04T04:57:53.810Z,21.60
2022-08-04T05:00:29.738Z,21.80
2022-08-04T05:03:27.213Z,21.70
2022-08-04T05:06:15.117Z,21.70
2022-08-04T05:09:16.930Z,21.60
2022-08-04T05:14:35.308Z,21.60
2022-08-04T05:15:42.627Z,21.60
2022-08-04T05:18:18.856Z,21.70
2022-08-04T05:20:53.080Z,21.70
2022-08-04T05:23:26.606Z,21.70
2022-08-04T05:26:00.738Z,21.60
2022-08-04T05:28:37.189Z,21.70
2022-08-04T05:31:12.250Z,21.80
2022-08-04T05:33:46.320Z,21.80
2022-08-04T05:36:35.351Z,21.80
2022-08-04T05:39:13.454Z,21.90
2022-08-04T05:41:46.213Z,22.00
2022-08-04T05:44:20.521Z,22.10
2022-08-04T05:46:55.699Z,22.20
2022-08-04T05:49:25.038Z,22.40
2022-08-04T05:51:55.144Z,22.70
2022-08-04T05:54:24.544Z,22.80
2022-08-04T05:56:55.953Z,22.90
2022-08-04T05:59:27.049Z,23.00
2022-08-04T06:01:58.405Z,23.30
2022-08-04T06:04:33.171Z,23.90
2022-08-04T06:07:01.320Z,24.40
2022-08-04T06:09:29.698Z,25.00
2022-08-04T06:12:03.762Z,25.50
2022-08-04T06:14:40.244Z,26.00
2022-08-04T06:18:33.782Z,26.00
2022-08-04T06:20:19.629Z,26.40
2022-08-04T06:22:56.885Z,26.50
2022-08-04T06:25:32.759Z,26.30
2022-08-04T06:28:03.028Z,26.30
2022-08-04T06:30:33.714Z,26.20
2022-08-04T06:33:05.233Z,26.40
2022-08-04T06:35:34.635Z,26.60
2022-08-04T06:38:03.882Z,26.80
2022-08-04T06:40:34.089Z,26.80
2022-08-04T06:43:04.356Z,26.90
2022-08-04T06:45:37.229Z,27.40
2022-08-04T06:48:08.225Z,28.00
2022-08-04T06:51:28.279Z,28.40
2022-08-04T06:53:26.999Z,28.80
2022-08-04T06:55:57.622Z,29.20
2022-08-04T06:58:27.195Z,29.80
2022-08-04T07:01:04.356Z,30.20
2022-08-04T07:03:33.185Z,30.70
2022-08-04T07:06:05.807Z,31.20
2022-08-04T07:08:36.863Z,31.80
2022-08-04T07:11:06.514Z,32.20
2022-08-04T07:13:35.464Z,32.50
2022-08-04T07:16:06.722Z,33.10
2022-08-04T07:18:34.928Z,33.40
2022-08-04T07:21:03.447Z,34.10
2022-08-04T07:23:32.353Z,34.50
2022-08-04T07:26:11.634Z,34.80
2022-08-04T07:28:42.277Z,35.30
2022-08-04T07:31:33.158Z,35.50
2022-08-04T07:34:21.047Z,36.00
2022-08-04T07:36:56.027Z,36.20
2022-08-04T07:39:28.345Z,36.80
2022-08-04T07:42:01.560Z,37.30
2022-08-04T07:44:31.881Z,37.40
2022-08-04T07:47:02.525Z,37.50
2022-08-04T07:49:55.473Z,38.30
2022-08-04T07:52:21.887Z,38.20
2022-08-04T07:54:51.683Z,37.90
2022-08-04T07:57:40.570Z,38.00
2022-08-04T08:00:13.347Z,37.60
2022-08-04T08:02:43.839Z,37.80
2022-08-04T08:05:15.011Z,38.20
2022-08-04T08:07:53.998Z,38.40
2022-08-04T08:10:22.602Z,38.40
2022-08-04T08:12:52.433Z,38.90
2022-08-04T08:15:21.971Z,38.50
2022-08-04T08:17:59.786Z,37.80
2022-08-04T08:20:31.508Z,37.70
2022-08-04T08:23:00.862Z,38.50
2022-08-04T08:25:31.148Z,38.90
2022-08-04T08:27:59.663Z,38.70
2022-08-04T08:30:31.644Z,39.00
2022-08-04T08:33:06.465Z,39.40
2022-08-04T08:35:53.184Z,39.90
2022-08-04T08:38:30.023Z,39.90
2022-08-04T08:41:24.173Z,39.30
2022-08-04T08:44:29.810Z,39.20
2022-08-04T08:47:19.901Z,39.30
2022-08-04T08:50:27.954Z,39.00
2022-08-04T08:53:15.527Z,39.30
2022-08-04T08:56:02.846Z,39.00
2022-08-04T08:58:45.710Z,39.10
2022-08-04T09:01:34.728Z,40.20
2022-08-04T09:04:39.843Z,40.50
2022-08-04T09:07:35.352Z,40.00
2022-08-04T09:10:11.692Z,39.90
2022-08-04T09:12:48.203Z,39.80
2022-08-04T09:15:23.397Z,40.10
2022-08-04T09:17:56.797Z,40.50
2022-08-04T09:20:33.064Z,41.00
2022-08-04T09:23:17.346Z,40.70
2022-08-04T09:25:55.929Z,40.80
2022-08-04T09:28:52.482Z,41.10
2022-08-04T09:31:22.583Z,41.30
2022-08-04T09:34:04.693Z,40.90
2022-08-04T09:36:40.527Z,41.00
2022-08-04T09:39:25.864Z,40.60
2022-08-04T09:42:07.762Z,40.70
2022-08-04T09:44:52.420Z,40.50
2022-08-04T09:47:39.592Z,40.80
2022-08-04T09:50:20.141Z,41.10
2022-08-04T09:52:59.465Z,41.40
2022-08-04T09:55:53.918Z,41.80
2022-08-04T09:58:49.072Z,41.80
2022-08-04T10:01:23.474Z,42.30
2022-08-04T10:03:54.831Z,42.00
2022-08-04T10:07:14.837Z,42.50
2022-08-04T10:09:59.671Z,42.00
2022-08-04T10:12:45.186Z,41.50
2022-08-04T10:15:18.734Z,41.50
2022-08-04T10:18:17.881Z,41.00
2022-08-04T10:21:08.961Z,40.50
2022-08-04T10:23:56.765Z,40.50
2022-08-04T10:26:41.603Z,40.30
2022-08-04T10:29:18.264Z,40.20
2022-08-04T10:31:56.630Z,40.30
2022-08-04T10:34:30.846Z,40.60
2022-08-04T10:37:09.160Z,40.80
2022-08-04T10:40:07.322Z,40.80
2022-08-04T10:42:42.965Z,40.80
2022-08-04T10:45:19.973Z,40.60
2022-08-04T10:47:59.627Z,40.70
2022-08-04T10:50:31.526Z,41.00
2022-08-04T10:53:04.951Z,41.40
2022-08-04T10:56:05.592Z,41.40
2022-08-04T10:58:47.348Z,41.10
2022-08-04T11:02:00.810Z,40.70
2022-08-04T11:04:28.016Z,40.40
2022-08-04T11:06:57.480Z,39.40
2022-08-04T11:09:25.823Z,39.00
2022-08-04T11:12:01.817Z,38.90
2022-08-04T11:14:38.747Z,38.60
2022-08-04T11:17:15.065Z,38.10
2022-08-04T11:19:53.513Z,37.40
2022-08-04T11:22:27.524Z,37.10
2022-08-04T11:25:07.187Z,36.80
2022-08-04T11:27:48.063Z,36.40
2022-08-04T11:30:18.288Z,35.90
2022-08-04T11:32:53.651Z,35.70
2022-08-04T11:35:37.352Z,35.80
2022-08-04T11:38:13.806Z,35.70
2022-08-04T11:40:55.761Z,35.70
2022-08-04T11:43:56.197Z,35.70
2022-08-04T11:46:38.150Z,35.70
2022-08-04T11:49:16.005Z,35.70
2022-08-04T11:51:45.694Z,35.80
2022-08-04T11:54:15.007Z,35.80
2022-08-04T11:56:43.804Z,35.70
2022-08-04T11:59:11.994Z,35.60
2022-08-04T12:02:03.851Z,35.70
2022-08-04T12:04:48.401Z,35.60
2022-08-04T12:07:31.055Z,35.50
2022-08-04T12:10:15.502Z,35.60
2022-08-04T12:12:56.944Z,35.80
2022-08-04T12:15:31.757Z,35.70
2022-08-04T12:18:16.011Z,35.80
2022-08-04T12:20:51.477Z,35.80
2022-08-04T12:23:25.659Z,35.70
2022-08-04T12:26:01.830Z,35.70
2022-08-04T12:29:06.855Z,35.60
2022-08-04T12:31:29.638Z,35.60
2022-08-04T12:34:06.168Z,35.60
2022-08-04T12:36:44.862Z,35.70
2022-08-04T12:39:17.778Z,35.80
2022-08-04T12:42:08.919Z,36.00
2022-08-04T12:44:39.891Z,36.10
2022-08-04T12:47:27.004Z,35.90
2022-08-04T12:50:03.611Z,36.00
2022-08-04T12:55:35.279Z,36.30
2022-08-04T12:58:11.531Z,36.40
2022-08-04T13:00:42.134Z,36.60
2022-08-04T13:03:13.727Z,36.70
2022-08-04T13:05:43.412Z,36.60
2022-08-04T13:08:15.317Z,36.40
2022-08-04T13:10:47.448Z,36.30
2022-08-04T13:13:19.190Z,36.30
2022-08-04T13:15:59.143Z,36.50
2022-08-04T13:18:32.546Z,36.60
2022-08-04T13:21:20.211Z,36.40
2022-08-04T13:24:10.277Z,36.30
2022-08-04T13:26:56.269Z,36.40
2022-08-04T13:29:59.865Z,36.30
2022-08-04T13:32:18.490Z,36.30
2022-08-04T13:34:52.654Z,36.50
2022-08-04T13:37:24.288Z,36.70
2022-08-04T13:39:56.435Z,36.70
2022-08-04T13:42:26.990Z,36.80
2022-08-04T13:44:58.952Z,36.70
2022-08-04T13:47:33.405Z,36.60
2022-08-04T13:50:19.520Z,36.60
2022-08-04T13:52:49.106Z,36.60
2022-08-04T13:55:28.458Z,36.60
2022-08-04T13:58:06.303Z,36.70
2022-08-04T14:00:55.757Z,37.00
2022-08-04T14:03:31.572Z,37.20
2022-08-04T14:06:16.240Z,37.50
2022-08-04T14:08:53.766Z,37.60
2022-08-04T14:12:09.611Z,37.80
2022-08-04T14:14:25.799Z,37.80
2022-08-04T14:16:59.961Z,37.70
2022-08-04T14:19:36.124Z,37.60
2022-08-04T14:22:04.845Z,37.60
2022-08-04T14:24:34.110Z,37.60
2022-08-04T14:27:03.599Z,37.50
2022-08-04T14:29:41.772Z,37.30
2022-08-04T14:32:14.287Z,37.10
2022-08-04T14:34:45.819Z,36.80
2022-08-04T14:37:20.513Z,36.80
2022-08-04T14:40:18.955Z,36.70
2022-08-04T14:42:54.771Z,36.50
2022-08-04T14:45:36.694Z,36.30
2022-08-04T14:48:09.943Z,36.00
2022-08-04T14:50:41.332Z,35.90
2022-08-04T14:53:13.139Z,35.80
2022-08-04T14:55:48.528Z,35.70
2022-08-04T14:58:36.510Z,35.60
2022-08-04T15:01:09.633Z,35.50
2022-08-04T15:03:50.078Z,35.60
2022-08-04T15:06:23.828Z,35.60
2022-08-04T15:08:54.004Z,35.60
2022-08-04T15:11:24.275Z,35.60
2022-08-04T15:13:54.713Z,35.60
2022-08-04T15:16:24.981Z,35.60
2022-08-04T15:18:54.895Z,35.60
2022-08-04T15:21:28.949Z,35.60
2022-08-04T15:23:58.695Z,35.50
2022-08-04T15:26:34.440Z,35.50
2022-08-04T15:29:16.660Z,35.40
2022-08-04T15:32:06.581Z,35.40
2022-08-04T15:34:52.840Z,35.40
2022-08-04T15:37:34.063Z,35.30
2022-08-04T15:40:10.849Z,35.30
2022-08-04T15:42:47.459Z,35.30
2022-08-04T15:46:02.418Z,35.40
2022-08-04T15:48:27.173Z,35.50
2022-08-04T15:51:05.239Z,35.60
2022-08-04T15:54:23.504Z,35.70
2022-08-04T15:57:02.377Z,35.70
2022-08-04T16:00:11.225Z,35.70
2022-08-04T16:02:44.658Z,35.60
2022-08-04T16:05:36.870Z,35.60
2022-08-04T16:08:18.094Z,35.50
2022-08-04T16:10:50.978Z,35.50
2022-08-04T16:13:22.146Z,35.60
2022-08-04T16:15:53.579Z,35.60
2022-08-04T16:18:43.827Z,35.60
2022-08-04T16:21:26.744Z,35.70
2022-08-04T16:24:18.751Z,35.80
2022-08-04T16:26:54.332Z,35.80
2022-08-04T16:29:35.523Z,35.70
2022-08-04T16:32:23.149Z,35.60
2022-08-04T16:34:59.760Z,35.50
2022-08-04T16:37:34.677Z,35.40
2022-08-04T16:40:33.324Z,35.40
2022-08-04T16:43:09.546Z,35.40
2022-08-04T16:45:59.996Z,35.30
2022-08-04T16:48:29.930Z,35.40
2022-08-04T16:51:07.609Z,35.30
2022-08-04T16:53:52.643Z,35.20
2022-08-04T16:56:34.177Z,35.00
2022-08-04T16:59:11.146Z,34.80
2022-08-04T17:01:40.257Z,34.50
2022-08-04T17:04:08.443Z,34.40
2022-08-04T17:06:40.452Z,34.40
2022-08-04T17:09:14.940Z,34.40
2022-08-04T17:11:44.907Z,34.40
2022-08-04T17:14:13.635Z,34.40
2022-08-04T17:16:44.381Z,34.30
2022-08-04T17:19:23.885Z,34.10
2022-08-04T17:22:04.949Z,34.00
2022-08-04T17:24:35.709Z,34.00
2022-08-04T17:28:08.750Z,34.00
2022-08-04T17:29:53.075Z,33.90
2022-08-04T17:32:23.211Z,33.90
2022-08-04T17:34:54.022Z,33.80
2022-08-04T17:37:52.915Z,33.80
2022-08-04T17:40:22.463Z,33.70
2022-08-04T17:44:02.825Z,33.50
2022-08-04T17:46:29.521Z,33.50
2022-08-04T17:49:05.971Z,33.40
2022-08-04T17:52:02.916Z,33.20
2022-08-04T17:54:40.004Z,33.20
2022-08-04T17:57:20.003Z,33.10
2022-08-04T17:59:56.318Z,33.00
2022-08-04T18:02:33.347Z,32.80
2022-08-04T18:05:07.724Z,32.70
2022-08-04T18:08:45.540Z,32.50
2022-08-04T18:10:51.828Z,32.40
2022-08-04T18:13:26.038Z,32.30
2022-08-04T18:16:03.407Z,32.10
2022-08-04T18:18:31.857Z,31.90
2022-08-04T18:21:02.992Z,31.70
2022-08-04T18:23:33.362Z,31.70
2022-08-04T18:26:03.565Z,31.40
2022-08-04T18:28:33.480Z,31.40
2022-08-04T18:31:02.863Z,31.10
2022-08-04T18:36:32.614Z,30.80
2022-08-04T18:39:13.321Z,30.60
2022-08-04T18:42:02.408Z,30.50
2022-08-04T18:44:51.767Z,30.50
2022-08-04T18:47:22.977Z,30.30
2022-08-04T18:51:11.321Z,30.20
2022-08-04T18:52:45.176Z,30.00
2022-08-04T18:55:51.602Z,30.00
2022-08-04T18:58:07.272Z,30.00
2022-08-04T19:00:45.535Z,29.80
2022-08-04T19:03:16.340Z,29.80
2022-08-04T19:05:50.279Z,29.70
2022-08-04T19:08:33.371Z,29.70
2022-08-04T19:11:38.335Z,29.70
2022-08-04T19:13:58.442Z,29.60
2022-08-04T19:16:28.520Z,29.80
2022-08-04T19:18:57.204Z,29.70
2022-08-04T19:22:01.342Z,29.80
2022-08-04T19:24:32.494Z,29.70
2022-08-04T19:27:06.972Z,29.80
2022-08-04T19:29:41.166Z,29.80
2022-08-04T19:32:14.798Z,29.80
2022-08-04T19:34:46.177Z,29.80
2022-08-04T19:37:56.661Z,29.60
2022-08-04T19:40:06.744Z,29.60
2022-08-04T19:42:35.082Z,29.50
2022-08-04T19:45:05.756Z,29.50
2022-08-04T19:48:16.828Z,29.50
2022-08-04T19:50:23.637Z,29.50
2022-08-04T19:52:52.944Z,29.40
2022-08-04T19:55:36.696Z,29.40
2022-08-04T19:58:07.305Z,29.40
2022-08-04T20:00:39.048Z,29.40
2022-08-04T20:03:11.544Z,29.30
2022-08-04T20:05:54.455Z,29.30
2022-08-04T20:08:24.940Z,29.30
2022-08-04T20:10:54.692Z,29.40
2022-08-04T20:13:30.974Z,29.40
2022-08-04T20:16:20.231Z,29.30
2022-08-04T20:19:00.805Z,29.30
2022-08-04T20:21:36.604Z,29.30
2022-08-04T20:24:40.010Z,29.30
2022-08-04T20:27:11.531Z,29.30
2022-08-04T20:29:48.423Z,29.30
2022-08-04T20:32:22.257Z,29.30
2022-08-04T20:34:52.067Z,29.30
2022-08-04T20:37:22.875Z,29.30
2022-08-04T20:39:55.929Z,29.30
2022-08-04T20:42:27.117Z,29.20
2022-08-04T20:44:56.501Z,29.30
2022-08-04T20:47:26.897Z,29.30
2022-08-04T20:50:05.505Z,29.20
2022-08-04T20:52:37.987Z,29.10
2022-08-04T20:55:09.064Z,29.20
2022-08-04T20:57:47.934Z,29.10
2022-08-04T21:00:17.826Z,29.10
2022-08-04T21:02:59.456Z,28.90
2022-08-04T21:05:27.759Z,28.90
2022-08-04T21:07:56.662Z,28.90
2022-08-04T21:10:25.742Z,28.90
2022-08-04T21:12:54.658Z,28.90
2022-08-04T21:15:25.584Z,28.80
2022-08-04T21:17:58.810Z,28.60
2022-08-04T21:20:35.306Z,28.50
2022-08-04T21:23:05.286Z,28.50
2022-08-04T21:25:42.552Z,28.30
2022-08-04T21:28:11.764Z,28.20
2022-08-04T21:30:54.010Z,28.20
2022-08-04T21:36:19.474Z,28.10
2022-08-04T21:38:51.451Z,28.00
2022-08-04T21:41:24.722Z,28.00
2022-08-04T21:43:56.340Z,27.80
2022-08-04T21:46:30.080Z,27.80
2022-08-04T21:48:58.275Z,27.70
2022-08-04T21:51:58.121Z,27.70
2022-08-04T21:54:20.535Z,27.60
2022-08-04T21:56:51.087Z,27.60
2022-08-04T21:59:23.880Z,27.60
2022-08-04T22:02:01.396Z,27.50
2022-08-04T22:04:30.811Z,27.40
2022-08-04T22:07:03.038Z,27.40
2022-08-04T22:09:38.773Z,27.40
2022-08-04T22:12:12.122Z,27.40
2022-08-04T22:14:41.057Z,27.40
2022-08-04T22:17:13.879Z,27.40
2022-08-04T22:19:54.937Z,27.40
2022-08-04T22:22:29.290Z,27.40
2022-08-04T22:25:12.400Z,27.20
2022-08-04T22:28:01.584Z,27.20
2022-08-04T22:30:36.382Z,27.20
2022-08-04T22:33:08.207Z,27.00
2022-08-04T22:35:48.955Z,27.00
2022-08-04T22:38:24.394Z,26.90
2022-08-04T22:40:58.989Z,26.70
2022-08-04T22:43:32.227Z,26.60
2022-08-04T22:46:05.268Z,26.50
2022-08-04T22:48:34.744Z,26.50
2022-08-04T22:51:04.601Z,26.50
2022-08-04T22:53:36.408Z,26.40
2022-08-04T22:56:09.435Z,26.40
2022-08-04T22:58:45.405Z,26.50
2022-08-04T23:01:15.512Z,26.30
2022-08-04T23:03:55.479Z,26.20
2022-08-04T23:06:28.725Z,26.20
2022-08-04T23:08:59.323Z,26.20
2022-08-04T23:11:34.440Z,26.10
2022-08-04T23:14:04.702Z,26.10
2022-08-04T23:16:33.192Z,26.10
2022-08-04T23:19:09.723Z,26.00
2022-08-04T23:21:47.367Z,25.90
2022-08-04T23:24:30.376Z,25.80
2022-08-04T23:26:58.673Z,25.80
2022-08-04T23:29:27.488Z,25.60
2022-08-04T23:31:59.225Z,25.60
2022-08-04T23:34:29.161Z,25.50
2022-08-04T23:36:59.033Z,25.50
2022-08-04T23:40:03.393Z,25.50
2022-08-04T23:42:21.256Z,25.50
2022-08-04T23:44:50.386Z,25.60
2022-08-04T23:48:18.389Z,25.30
2022-08-04T23:50:09.501Z,25.20
2022-08-04T23:52:37.681Z,25.10
2022-08-04T23:55:09.735Z,24.80
2022-08-04T23:58:06.215Z,24.80
